NCAR-RAP Real-Time Weather Data

Output produced by METARs form (06 May 2021  16:35 UTC)
found at http://weather.rap.ucar.edu/surface/
 
KARR 061552Z 35012KT 10SM BKN085 10/05 A3007 RMK AO2 SLP185 T01000050
KARR 061533Z 01009KT 10SM SCT028 BKN035 OVC090 11/04 A3007 RMK AO2 T01060044
KARR 061524Z 34007KT 10SM BKN028 OVC034 11/04 A3007 RMK AO2 T01060044
KARR 061452Z 32004KT 10SM BKN034 BKN055 OVC150 11/04 A3008 RMK AO2 SLP186 60000 T01060044 55003
KARR 061352Z 15011KT 10SM BKN070 OVC085 09/04 A3006 RMK AO2 RAE04 SLP181 P0000 T00940039
KARR 061252Z 14010KT 10SM -RA FEW032 SCT055 OVC080 08/04 A3007 RMK AO2 RAE08B51 SLP184 P0000 T00830039
KARR 061152Z 13006KT 10SM -RA OVC055 08/04 A3009 RMK AO2 SLP190 P0001 60001 70001 T00830039 10094 20083 56003
KARR 061052Z AUTO 00000KT 10SM -RA OVC060 09/03 A3009 RMK AO2 RAB42 SLP191 P0000 T00890028
KARR 060952Z AUTO 13006KT 10SM OVC070 09/01 A3008 RMK AO2 SLP188 T00890011
KARR 060852Z AUTO 12003KT 10SM OVC070 09/01 A3010 RMK AO2 SLP192 T00940006 55007
KARR 060752Z AUTO 13006KT 10SM OVC075 09/00 A3009 RMK AO2 SLP191 T00940000
KARR 060652Z AUTO 15006KT 10SM OVC085 09/M01 A3010 RMK AO2 SLP195 T00891006
KARR 060552Z AUTO 13008KT 10SM BKN100 OVC120 09/M01 A3012 RMK AO2 SLP199 T00891011 10150 20078 401720006 58011
KARR 060452Z AUTO 13006KT 10SM CLR 08/M01 A3014 RMK AO2 SLP208 T00831006
KARR 060352Z AUTO 12004KT 10SM CLR 08/00 A3015 RMK AO2 SLP212 T00830000
KARR 060252Z AUTO 11006KT 10SM OVC070 09/M01 A3015 RMK AO2 SLP211 T00941006 53013
KARR 060152Z 11009KT 10SM CLR 10/M01 A3013 RMK AO2 WSHFT 0040 SLP205 T01001006